createdAt,value
2023-02-03T00:00:02.231Z,65.98
2023-02-03T00:02:04.027Z,65.63
2023-02-03T00:04:05.988Z,66.10
2023-02-03T00:06:08.471Z,65.85
2023-02-03T00:08:11.820Z,66.06
2023-02-03T00:10:14.304Z,65.45
2023-02-03T00:12:16.195Z,65.87
2023-02-03T00:14:17.998Z,65.92
2023-02-03T00:16:19.863Z,65.07
2023-02-03T00:18:21.750Z,66.08
2023-02-03T00:20:23.998Z,66.30
2023-02-03T00:22:25.916Z,66.36
2023-02-03T00:24:27.721Z,66.41
2023-02-03T00:26:29.940Z,66.18
2023-02-03T00:28:31.965Z,66.22
2023-02-03T00:30:36.057Z,66.99
2023-02-03T00:32:38.402Z,66.51
2023-02-03T00:34:40.141Z,66.50
2023-02-03T00:36:43.034Z,66.43
2023-02-03T00:38:45.329Z,67.03
2023-02-03T00:40:53.573Z,66.97
2023-02-03T00:42:55.953Z,67.16
2023-02-03T00:44:59.940Z,66.43
2023-02-03T00:47:01.864Z,66.53
2023-02-03T00:49:04.850Z,66.87
2023-02-03T00:51:07.335Z,67.43
2023-02-03T00:53:09.490Z,67.02
2023-02-03T00:55:13.959Z,66.98
2023-02-03T00:57:15.745Z,67.22
2023-02-03T00:59:18.167Z,66.90
2023-02-03T01:01:20.007Z,66.96
2023-02-03T01:03:21.755Z,66.86
2023-02-03T01:05:23.919Z,66.92
2023-02-03T01:07:25.744Z,66.83
2023-02-03T01:09:27.530Z,66.95
2023-02-03T01:11:29.314Z,66.81
2023-02-03T01:13:31.195Z,66.61
2023-02-03T01:15:33.344Z,66.78
2023-02-03T01:17:35.111Z,66.64
2023-02-03T01:19:36.919Z,67.04
2023-02-03T01:21:38.877Z,66.32
2023-02-03T01:23:40.955Z,66.67
2023-02-03T01:25:42.747Z,66.35
2023-02-03T01:27:44.926Z,66.34
2023-02-03T01:29:46.774Z,66.32
2023-02-03T01:31:48.695Z,66.00
2023-02-03T01:33:52.698Z,66.04
2023-02-03T01:35:54.445Z,66.11
2023-02-03T01:37:56.268Z,66.35
2023-02-03T01:39:58.105Z,66.28
2023-02-03T01:41:59.901Z,66.03
2023-02-03T01:44:02.856Z,66.19
2023-02-03T01:46:11.196Z,66.47
2023-02-03T01:48:12.977Z,66.48
2023-02-03T01:50:21.585Z,66.92
2023-02-03T01:52:24.219Z,66.26
2023-02-03T01:54:29.935Z,66.46
2023-02-03T01:56:39.025Z,66.44
2023-02-03T01:58:43.503Z,66.59
2023-02-03T02:00:46.246Z,66.75
2023-02-03T02:02:50.342Z,66.79
2023-02-03T02:04:58.398Z,66.67
2023-02-03T02:07:00.814Z,66.11
2023-02-03T02:09:03.340Z,66.91
2023-02-03T02:11:06.893Z,66.45
2023-02-03T02:13:08.916Z,66.60
2023-02-03T02:15:11.179Z,66.37
2023-02-03T02:17:28.994Z,66.50
2023-02-03T02:19:37.002Z,66.27
2023-02-03T02:21:43.199Z,66.26
2023-02-03T02:23:52.901Z,66.73
2023-02-03T02:26:00.934Z,66.89
2023-02-03T02:28:06.198Z,67.07
2023-02-03T02:30:22.346Z,67.49
2023-02-03T02:32:27.559Z,67.85
2023-02-03T02:34:39.358Z,67.50
2023-02-03T02:36:47.376Z,67.53
2023-02-03T02:39:01.297Z,67.51
2023-02-03T02:41:10.776Z,67.22
2023-02-03T02:43:18.750Z,66.99
2023-02-03T02:45:27.045Z,66.67
2023-02-03T02:47:29.168Z,66.84
2023-02-03T02:49:34.439Z,66.39
2023-02-03T02:51:39.249Z,67.08
2023-02-03T02:53:48.630Z,66.66
2023-02-03T02:55:54.004Z,67.35
2023-02-03T02:58:01.125Z,66.67
2023-02-03T03:00:06.150Z,67.09
2023-02-03T03:02:11.049Z,67.11
2023-02-03T03:04:18.950Z,66.43
2023-02-03T03:06:25.036Z,66.95
2023-02-03T03:08:37.353Z,67.09
2023-02-03T03:10:43.323Z,66.44
2023-02-03T03:12:50.060Z,66.96
2023-02-03T03:14:59.504Z,66.84
2023-02-03T03:17:06.071Z,66.85
2023-02-03T03:19:12.629Z,66.89
2023-02-03T03:21:21.058Z,67.01
2023-02-03T03:23:28.277Z,66.58
2023-02-03T03:25:39.480Z,67.03
2023-02-03T03:27:46.954Z,66.61
2023-02-03T03:29:56.103Z,66.79
2023-02-03T03:32:01.252Z,66.71
2023-02-03T03:34:03.745Z,66.96
2023-02-03T03:36:09.274Z,66.33
2023-02-03T03:38:20.884Z,66.63
2023-02-03T03:40:29.065Z,66.73
2023-02-03T03:42:37.108Z,66.69
2023-02-03T03:44:48.391Z,66.42
2023-02-03T03:47:01.915Z,66.79
2023-02-03T03:49:07.919Z,66.48
2023-02-03T03:51:16.920Z,66.95
2023-02-03T03:53:19.981Z,66.94
2023-02-03T03:55:22.266Z,67.22
2023-02-03T03:57:31.054Z,66.92
2023-02-03T03:59:37.602Z,67.29
2023-02-03T04:01:40.118Z,67.59
2023-02-03T04:03:49.914Z,67.93
2023-02-03T04:05:52.019Z,68.12
2023-02-03T04:07:53.777Z,68.10
2023-02-03T04:09:55.895Z,67.48
2023-02-03T04:12:00.757Z,67.49
2023-02-03T04:14:02.938Z,67.35
2023-02-03T04:16:05.148Z,68.00
2023-02-03T04:18:06.999Z,67.80
2023-02-03T04:20:09.794Z,68.16
2023-02-03T04:22:12.149Z,68.21
2023-02-03T04:24:13.986Z,67.88
2023-02-03T04:26:18.160Z,68.36
2023-02-03T04:28:19.994Z,67.47
2023-02-03T04:30:22.075Z,67.95
2023-02-03T04:32:24.159Z,68.53
2023-02-03T04:34:25.991Z,68.40
2023-02-03T04:36:27.865Z,68.19
2023-02-03T04:38:30.120Z,68.07
2023-02-03T04:40:34.692Z,68.16
2023-02-03T04:42:38.886Z,67.84
2023-02-03T04:44:41.085Z,67.76
2023-02-03T04:46:42.844Z,68.21
2023-02-03T04:48:45.142Z,67.56
2023-02-03T04:50:47.040Z,67.63
2023-02-03T04:52:48.762Z,67.61
2023-02-03T04:54:50.514Z,67.77
2023-02-03T04:56:52.450Z,67.81
2023-02-03T04:58:54.589Z,67.96
2023-02-03T05:00:56.403Z,68.07
2023-02-03T05:02:58.324Z,67.96
2023-02-03T05:05:00.425Z,68.26
2023-02-03T05:07:02.324Z,68.01
2023-02-03T05:09:04.363Z,67.17
2023-02-03T05:11:06.791Z,67.21
2023-02-03T05:13:13.132Z,67.17
2023-02-03T05:15:17.067Z,66.97
2023-02-03T05:17:18.860Z,66.50
2023-02-03T05:19:20.643Z,66.13
2023-02-03T05:21:22.952Z,66.56
2023-02-03T05:23:24.791Z,66.44
2023-02-03T05:25:26.817Z,66.34
2023-02-03T05:27:28.784Z,66.52
2023-02-03T05:29:30.564Z,65.83
2023-02-03T05:31:33.666Z,66.12
2023-02-03T05:33:35.945Z,66.17
2023-02-03T05:35:37.842Z,65.62
2023-02-03T05:37:39.866Z,65.77
2023-02-03T05:39:43.995Z,66.16
2023-02-03T05:41:48.834Z,65.55
2023-02-03T05:43:50.984Z,65.46
2023-02-03T05:45:52.829Z,66.12
2023-02-03T05:47:54.580Z,66.43
2023-02-03T05:49:56.379Z,66.69
2023-02-03T05:51:58.216Z,67.25
2023-02-03T05:54:02.726Z,66.44
2023-02-03T05:56:04.820Z,66.76
2023-02-03T05:58:06.545Z,67.04
2023-02-03T06:00:09.215Z,67.08
2023-02-03T06:02:10.939Z,66.60
2023-02-03T06:04:15.228Z,67.75
2023-02-03T06:06:17.580Z,67.92
2023-02-03T06:08:21.557Z,67.77
2023-02-03T06:10:23.326Z,67.62
2023-02-03T06:12:26.975Z,68.05
2023-02-03T06:14:30.320Z,68.37
2023-02-03T06:16:32.264Z,67.79
2023-02-03T06:18:34.079Z,67.70
2023-02-03T06:20:35.995Z,68.32
2023-02-03T06:22:38.211Z,68.28
2023-02-03T06:24:42.294Z,68.40
2023-02-03T06:26:44.083Z,68.16
2023-02-03T06:28:45.909Z,67.78
2023-02-03T06:30:51.330Z,67.79
2023-02-03T06:32:53.260Z,67.81
2023-02-03T06:34:57.444Z,67.41
2023-02-03T06:37:00.044Z,67.64
2023-02-03T06:39:01.954Z,67.42
2023-02-03T06:41:05.113Z,67.82
2023-02-03T06:43:06.904Z,67.42
2023-02-03T06:45:09.688Z,68.08
2023-02-03T06:47:11.493Z,67.77
2023-02-03T06:49:13.619Z,67.91
2023-02-03T06:51:15.785Z,67.97
2023-02-03T06:53:17.638Z,67.78
2023-02-03T06:55:19.364Z,67.84
2023-02-03T06:57:21.480Z,67.91
2023-02-03T06:59:23.358Z,68.20
2023-02-03T07:01:26.246Z,67.58
2023-02-03T07:03:28.138Z,67.42
2023-02-03T07:05:30.448Z,67.46
2023-02-03T07:07:35.001Z,67.74
2023-02-03T07:09:36.870Z,67.29
2023-02-03T07:11:38.666Z,67.32
2023-02-03T07:13:42.510Z,67.03
2023-02-03T07:15:44.367Z,67.33
2023-02-03T07:17:54.614Z,67.10
2023-02-03T07:19:56.689Z,66.68
2023-02-03T07:22:00.939Z,66.99
2023-02-03T07:24:03.224Z,66.69
2023-02-03T07:26:06.664Z,66.74
2023-02-03T07:28:08.997Z,66.52
2023-02-03T07:30:13.895Z,66.87
2023-02-03T07:32:15.744Z,66.45
2023-02-03T07:34:17.525Z,66.87
2023-02-03T07:36:19.371Z,66.86
2023-02-03T07:38:21.547Z,66.34
2023-02-03T07:40:25.905Z,66.96
2023-02-03T07:42:27.885Z,67.21
2023-02-03T07:44:29.756Z,67.01
2023-02-03T07:46:31.712Z,67.06
2023-02-03T07:48:33.767Z,66.63
2023-02-03T07:50:35.580Z,66.57
2023-02-03T07:52:38.306Z,66.61
2023-02-03T07:54:40.098Z,67.13
2023-02-03T07:56:43.244Z,66.79
2023-02-03T07:58:45.315Z,67.08
2023-02-03T08:00:47.126Z,67.10
2023-02-03T08:02:48.949Z,67.09
2023-02-03T08:04:51.239Z,66.80
2023-02-03T08:06:53.083Z,66.60
2023-02-03T08:08:54.924Z,67.14
2023-02-03T08:10:57.211Z,67.05
2023-02-03T08:12:59.103Z,66.88
2023-02-03T08:15:01.178Z,66.92
2023-02-03T08:17:03.073Z,66.58
2023-02-03T08:19:07.085Z,66.66
2023-02-03T08:21:11.429Z,66.77
2023-02-03T08:23:13.339Z,66.09
2023-02-03T08:25:15.443Z,66.34
2023-02-03T08:27:19.745Z,66.42
2023-02-03T08:29:21.760Z,65.99
2023-02-03T08:31:26.214Z,66.23
2023-02-03T08:33:29.057Z,66.52
2023-02-03T08:35:30.869Z,66.69
2023-02-03T08:37:33.185Z,66.92
2023-02-03T08:39:35.556Z,66.66
2023-02-03T08:41:37.426Z,66.46
2023-02-03T08:43:39.883Z,66.70
2023-02-03T08:45:41.861Z,66.89
2023-02-03T08:47:43.776Z,66.53
2023-02-03T08:49:45.943Z,66.72
2023-02-03T08:51:49.450Z,66.68
2023-02-03T08:53:52.053Z,66.24
2023-02-03T08:55:56.421Z,66.37
2023-02-03T08:57:58.460Z,66.22
2023-02-03T09:00:00.319Z,66.43
2023-02-03T09:02:04.627Z,66.67
2023-02-03T09:04:09.094Z,66.58
2023-02-03T09:06:16.945Z,66.41
2023-02-03T09:08:18.740Z,66.47
2023-02-03T09:10:20.639Z,66.91
2023-02-03T09:12:22.799Z,66.22
2023-02-03T09:14:27.642Z,66.82
2023-02-03T09:16:31.156Z,66.59
2023-02-03T09:18:33.325Z,66.39
2023-02-03T09:20:35.229Z,66.79
2023-02-03T09:22:37.521Z,66.40
2023-02-03T09:24:40.074Z,66.64
2023-02-03T09:26:45.725Z,66.53
2023-02-03T09:28:47.982Z,67.15
2023-02-03T09:30:52.428Z,66.96
2023-02-03T09:32:56.546Z,66.84
2023-02-03T09:34:58.493Z,67.38
2023-02-03T09:37:02.914Z,67.44
2023-02-03T09:39:05.299Z,67.18
2023-02-03T09:41:12.817Z,67.48
2023-02-03T09:43:21.198Z,67.24
2023-02-03T09:45:26.492Z,67.48
2023-02-03T09:47:32.829Z,67.66
2023-02-03T09:49:41.183Z,66.90
2023-02-03T09:51:51.288Z,66.97
2023-02-03T09:54:01.347Z,66.60
2023-02-03T09:56:03.519Z,66.65
2023-02-03T09:58:09.955Z,66.52
2023-02-03T10:00:19.712Z,66.55
2023-02-03T10:02:25.395Z,65.97
2023-02-03T10:04:34.405Z,65.42
2023-02-03T10:06:40.623Z,65.53
2023-02-03T10:08:59.660Z,64.77
2023-02-03T10:11:10.570Z,64.80
2023-02-03T10:13:19.050Z,64.86
2023-02-03T10:15:32.160Z,64.54
2023-02-03T10:17:41.546Z,64.29
2023-02-03T10:19:47.410Z,63.75
2023-02-03T10:21:55.480Z,63.86
2023-02-03T10:24:00.119Z,64.18
2023-02-03T10:26:06.571Z,63.42
2023-02-03T10:28:18.538Z,64.01
2023-02-03T10:30:25.370Z,63.15
2023-02-03T10:32:28.092Z,63.35
2023-02-03T10:34:29.998Z,63.35
2023-02-03T10:36:38.192Z,63.59
2023-02-03T10:38:43.637Z,62.84
2023-02-03T10:40:46.541Z,63.28
2023-02-03T10:42:52.391Z,63.38
2023-02-03T10:44:59.117Z,62.67
2023-02-03T10:47:01.139Z,62.63
2023-02-03T10:49:03.778Z,62.34
2023-02-03T10:51:15.718Z,61.97
2023-02-03T10:53:19.347Z,61.72
2023-02-03T10:55:23.123Z,61.10
2023-02-03T10:57:25.854Z,61.12
2023-02-03T10:59:32.535Z,60.75
2023-02-03T11:01:41.174Z,60.66
2023-02-03T11:03:55.079Z,60.52
2023-02-03T11:06:03.555Z,60.50
2023-02-03T11:08:15.583Z,60.45
2023-02-03T11:10:23.717Z,60.24
2023-02-03T11:12:26.062Z,59.90
2023-02-03T11:14:37.059Z,59.56
2023-02-03T11:16:41.667Z,59.64
2023-02-03T11:18:46.298Z,59.33
2023-02-03T11:20:48.322Z,59.23
2023-02-03T11:22:50.374Z,58.63
2023-02-03T11:24:52.636Z,58.40
2023-02-03T11:27:00.534Z,58.49
2023-02-03T11:29:04.896Z,58.33
2023-02-03T11:31:18.171Z,57.81
2023-02-03T11:33:24.721Z,57.28
2023-02-03T11:35:29.580Z,56.43
2023-02-03T11:37:42.094Z,56.13
2023-02-03T11:39:44.085Z,56.14
2023-02-03T11:41:47.315Z,55.69
2023-02-03T11:43:54.682Z,55.79
2023-02-03T11:46:03.158Z,55.99
2023-02-03T11:48:11.214Z,56.12
2023-02-03T11:50:21.704Z,55.87
2023-02-03T11:52:34.070Z,55.92
2023-02-03T11:54:48.713Z,56.20
2023-02-03T11:56:57.271Z,56.32
2023-02-03T11:59:05.373Z,56.45
2023-02-03T12:01:11.092Z,56.32
2023-02-03T12:03:27.024Z,56.03
2023-02-03T12:05:32.406Z,55.63
2023-02-03T12:07:43.553Z,55.74
2023-02-03T12:09:51.839Z,55.82
2023-02-03T12:12:05.636Z,55.81
2023-02-03T12:14:13.722Z,56.22
2023-02-03T12:16:21.895Z,55.46
2023-02-03T12:18:27.303Z,55.59
2023-02-03T12:20:33.671Z,54.89
2023-02-03T12:22:45.085Z,54.92
2023-02-03T12:24:55.222Z,54.51
2023-02-03T12:27:02.399Z,54.25
2023-02-03T12:29:12.666Z,53.68
2023-02-03T12:31:22.042Z,53.30
2023-02-03T12:33:30.527Z,52.95
2023-02-03T12:35:35.286Z,52.99
2023-02-03T12:37:41.704Z,52.86
2023-02-03T12:39:49.075Z,53.03
2023-02-03T12:42:00.436Z,52.88
2023-02-03T12:44:08.663Z,52.47
2023-02-03T12:46:18.391Z,53.15
2023-02-03T12:48:29.460Z,52.20
2023-02-03T12:50:35.674Z,52.43
2023-02-03T12:52:48.093Z,52.20
2023-02-03T12:54:56.262Z,52.06
2023-02-03T12:57:08.306Z,52.17
2023-02-03T12:59:17.154Z,51.57
2023-02-03T13:01:25.385Z,51.66
2023-02-03T13:03:33.506Z,51.80
2023-02-03T13:05:42.159Z,52.16
2023-02-03T13:07:49.592Z,52.53
2023-02-03T13:10:01.011Z,52.20
2023-02-03T13:12:09.108Z,52.59
2023-02-03T13:14:17.207Z,52.55
2023-02-03T13:16:25.697Z,52.15
2023-02-03T13:18:34.668Z,51.79
2023-02-03T13:20:37.252Z,51.46
2023-02-03T13:22:39.137Z,51.53
2023-02-03T13:24:49.105Z,51.46
2023-02-03T13:26:57.647Z,51.59
2023-02-03T13:29:01.306Z,50.74
2023-02-03T13:31:09.614Z,51.00
2023-02-03T13:33:24.870Z,50.11
2023-02-03T13:35:36.615Z,49.87
2023-02-03T13:37:49.168Z,50.39
2023-02-03T13:40:00.879Z,50.01
2023-02-03T13:42:08.979Z,49.92
2023-02-03T13:44:15.703Z,50.16
2023-02-03T13:46:22.449Z,49.87
2023-02-03T13:48:28.002Z,50.45
2023-02-03T13:50:31.168Z,50.44
2023-02-03T13:52:36.574Z,50.82
2023-02-03T13:54:44.280Z,50.62
2023-02-03T13:56:57.520Z,50.89
2023-02-03T13:59:04.473Z,50.39
2023-02-03T14:01:30.161Z,50.92
2023-02-03T14:03:33.192Z,51.13
2023-02-03T14:05:40.847Z,50.87
2023-02-03T14:07:42.739Z,51.36
2023-02-03T14:09:47.168Z,51.72
2023-02-03T14:11:52.196Z,51.50
2023-02-03T14:13:55.059Z,51.88
2023-02-03T14:16:14.251Z,52.12
2023-02-03T14:18:32.025Z,51.93
2023-02-03T14:20:39.522Z,51.61
2023-02-03T14:22:41.698Z,52.48
2023-02-03T14:24:47.225Z,52.39
2023-02-03T14:26:52.147Z,52.47
2023-02-03T14:28:54.571Z,52.63
2023-02-03T14:31:05.461Z,52.62
2023-02-03T14:33:07.439Z,52.34
2023-02-03T14:35:15.619Z,52.41
2023-02-03T14:37:21.187Z,52.76
2023-02-03T14:39:29.365Z,53.29
2023-02-03T14:41:37.383Z,53.20
2023-02-03T14:43:50.778Z,53.26
2023-02-03T14:45:59.135Z,53.83
2023-02-03T14:48:12.632Z,53.80
2023-02-03T14:50:18.511Z,53.63
2023-02-03T14:52:24.143Z,53.98
2023-02-03T14:54:32.230Z,53.75
2023-02-03T14:56:57.457Z,53.84
2023-02-03T14:59:05.032Z,54.14
2023-02-03T15:01:08.473Z,54.58
2023-02-03T15:03:11.219Z,54.97
2023-02-03T15:05:14.355Z,55.20
2023-02-03T15:07:22.649Z,54.71
2023-02-03T15:09:31.222Z,54.69
2023-02-03T15:11:34.324Z,54.88
2023-02-03T15:13:36.744Z,54.64
2023-02-03T15:15:39.648Z,55.11
2023-02-03T15:17:42.209Z,55.01
2023-02-03T15:19:44.119Z,55.06
2023-02-03T15:21:46.464Z,55.20
2023-02-03T15:23:49.683Z,55.36
2023-02-03T15:25:56.313Z,55.11
2023-02-03T15:28:04.450Z,55.60
2023-02-03T15:30:17.460Z,56.04
2023-02-03T15:32:25.187Z,55.59
2023-02-03T15:34:33.299Z,55.78
2023-02-03T15:36:43.326Z,55.33
2023-02-03T15:38:55.858Z,55.84
2023-02-03T15:40:59.266Z,55.80
2023-02-03T15:43:04.730Z,55.51
2023-02-03T15:45:22.751Z,55.73
2023-02-03T15:47:31.166Z,56.08
2023-02-03T15:49:42.141Z,56.18
2023-02-03T15:51:49.770Z,55.85
2023-02-03T15:53:55.026Z,56.12
2023-02-03T15:56:01.322Z,56.37
2023-02-03T15:58:04.279Z,56.48
2023-02-03T16:00:09.747Z,56.60
2023-02-03T16:02:16.167Z,57.17
2023-02-03T16:04:19.310Z,57.33
2023-02-03T16:06:27.328Z,57.08
2023-02-03T16:08:39.896Z,56.91
2023-02-03T16:10:41.813Z,57.06
2023-02-03T16:12:43.770Z,57.10
2023-02-03T16:14:46.568Z,57.04
2023-02-03T16:17:04.369Z,57.22
2023-02-03T16:19:15.394Z,57.23
2023-02-03T16:21:29.203Z,57.22
2023-02-03T16:23:31.274Z,57.40
2023-02-03T16:25:35.109Z,57.24
2023-02-03T16:27:37.249Z,57.31
2023-02-03T16:29:42.636Z,57.45
2023-02-03T16:31:49.716Z,57.08
2023-02-03T16:33:55.002Z,57.09
2023-02-03T16:36:02.240Z,57.81
2023-02-03T16:38:10.039Z,57.38
2023-02-03T16:40:17.424Z,57.69
2023-02-03T16:42:24.587Z,57.34
2023-02-03T16:44:29.652Z,57.50
2023-02-03T16:46:35.198Z,57.30
2023-02-03T16:48:40.160Z,57.86
2023-02-03T16:50:46.311Z,57.51
2023-02-03T16:52:48.719Z,57.29
2023-02-03T16:54:50.764Z,57.23
2023-02-03T16:56:52.655Z,57.62
2023-02-03T16:58:54.557Z,57.88
2023-02-03T17:00:59.315Z,57.90
2023-02-03T17:03:05.173Z,58.11
2023-02-03T17:05:07.261Z,58.20
2023-02-03T17:07:09.284Z,58.16
2023-02-03T17:09:11.334Z,58.32
2023-02-03T17:11:18.527Z,57.82
2023-02-03T17:13:21.863Z,57.83
2023-02-03T17:15:23.769Z,57.79
2023-02-03T17:17:25.736Z,57.86
2023-02-03T17:19:27.648Z,57.62
2023-02-03T17:21:30.014Z,57.64
2023-02-03T17:23:31.883Z,57.45
2023-02-03T17:25:36.438Z,57.24
2023-02-03T17:27:38.550Z,57.68
2023-02-03T17:29:40.505Z,57.75
2023-02-03T17:31:45.470Z,57.54
2023-02-03T17:33:51.413Z,57.60
2023-02-03T17:35:59.708Z,58.17
2023-02-03T17:38:01.680Z,57.95
2023-02-03T17:54:07.579Z,57.54
2023-02-03T17:56:11.814Z,57.87
2023-02-03T17:58:14.228Z,57.70
2023-02-03T18:00:17.277Z,57.69
2023-02-03T18:02:19.190Z,57.88
2023-02-03T18:04:21.481Z,57.79
2023-02-03T18:06:25.437Z,57.84
2023-02-03T18:08:27.361Z,57.80
2023-02-03T18:10:29.564Z,57.50
2023-02-03T18:12:31.788Z,57.53
2023-02-03T18:14:34.286Z,57.20
2023-02-03T18:16:36.713Z,57.26
2023-02-03T18:18:39.639Z,57.53
2023-02-03T18:20:41.526Z,57.39
2023-02-03T18:22:44.478Z,57.70
2023-02-03T18:24:51.302Z,57.70
2023-02-03T18:26:56.066Z,58.03
2023-02-03T18:28:58.418Z,57.89
2023-02-03T18:31:04.116Z,57.64
2023-02-03T18:33:06.468Z,57.68
2023-02-03T18:35:13.033Z,57.37
2023-02-03T18:37:14.848Z,57.66
2023-02-03T18:39:18.275Z,57.81
2023-02-03T18:41:22.504Z,58.05
2023-02-03T18:43:24.330Z,57.72
2023-02-03T18:45:26.257Z,58.07
2023-02-03T18:47:28.026Z,58.07
2023-02-03T18:49:30.200Z,58.15
2023-02-03T18:51:32.164Z,58.00
2023-02-03T18:53:34.071Z,58.01
2023-02-03T18:55:36.481Z,58.16
2023-02-03T18:57:38.754Z,58.01
2023-02-03T18:59:40.623Z,58.36
2023-02-03T19:01:46.572Z,58.23
2023-02-03T19:03:49.137Z,57.94
2023-02-03T19:05:51.453Z,57.99
2023-02-03T19:07:53.439Z,57.91
2023-02-03T19:09:55.319Z,58.23
2023-02-03T19:11:59.243Z,58.31
2023-02-03T19:14:04.164Z,58.18
2023-02-03T19:16:07.036Z,57.94
2023-02-03T19:18:09.685Z,57.73
2023-02-03T19:20:13.058Z,57.88
2023-02-03T19:22:15.510Z,57.86
2023-02-03T19:24:21.533Z,57.94
2023-02-03T19:26:26.619Z,58.00
2023-02-03T19:28:31.176Z,57.89
2023-02-03T19:30:34.277Z,58.05
2023-02-03T19:32:38.459Z,57.98
2023-02-03T19:34:40.844Z,58.14
2023-02-03T19:36:43.224Z,58.15
2023-02-03T19:38:45.464Z,58.40
2023-02-03T19:40:47.573Z,57.93
2023-02-03T19:42:50.293Z,57.89
2023-02-03T19:44:52.471Z,57.99
2023-02-03T19:46:54.652Z,58.20
2023-02-03T19:48:56.647Z,58.36
2023-02-03T19:50:58.530Z,58.02
2023-02-03T19:53:00.733Z,58.10
2023-02-03T19:55:02.669Z,58.09
2023-02-03T19:57:04.580Z,58.00
2023-02-03T19:59:06.668Z,58.66
2023-02-03T20:01:10.300Z,58.63
2023-02-03T20:03:12.368Z,58.95
2023-02-03T20:05:14.924Z,58.79
2023-02-03T20:07:16.977Z,59.33
2023-02-03T20:09:18.743Z,59.39
2023-02-03T20:11:20.752Z,59.21
2023-02-03T20:13:22.603Z,59.62
2023-02-03T20:15:24.439Z,59.60
2023-02-03T20:17:26.845Z,59.69
2023-02-03T20:19:28.687Z,59.59
2023-02-03T20:21:31.033Z,60.27
2023-02-03T20:23:35.277Z,60.35
2023-02-03T20:25:37.122Z,60.75
2023-02-03T20:27:38.950Z,60.68
2023-02-03T20:29:41.391Z,60.75
2023-02-03T20:31:46.425Z,61.00
2023-02-03T20:33:49.172Z,60.87
2023-02-03T20:35:51.450Z,60.94
2023-02-03T20:37:53.491Z,60.80
2023-02-03T20:39:55.398Z,60.61
2023-02-03T20:41:57.698Z,60.96
2023-02-03T20:43:59.611Z,60.96
2023-02-03T20:46:01.684Z,61.00
2023-02-03T20:48:03.871Z,61.01
2023-02-03T20:50:12.815Z,60.96
2023-02-03T20:52:16.826Z,60.85
2023-02-03T20:54:21.457Z,60.99
2023-02-03T20:56:23.901Z,60.90
2023-02-03T20:58:29.546Z,60.78
2023-02-03T21:00:31.787Z,61.16
2023-02-03T21:02:54.208Z,60.98
2023-02-03T21:04:59.349Z,61.03
2023-02-03T21:07:06.735Z,61.13
2023-02-03T21:09:14.960Z,61.23
2023-02-03T21:11:20.483Z,60.96
2023-02-03T21:13:25.278Z,60.99
2023-02-03T21:15:29.668Z,61.36
2023-02-03T21:17:35.979Z,61.09
2023-02-03T21:19:40.082Z,61.64
2023-02-03T21:21:42.637Z,61.85
2023-02-03T21:23:47.610Z,61.46
2023-02-03T21:25:49.645Z,61.98
2023-02-03T21:27:51.941Z,62.01
2023-02-03T21:29:57.565Z,61.93
2023-02-03T21:32:00.433Z,61.91
2023-02-03T21:34:16.713Z,61.75
2023-02-03T21:36:22.038Z,62.16
2023-02-03T21:38:31.549Z,62.38
2023-02-03T21:40:35.006Z,62.55
2023-02-03T21:42:39.917Z,62.46
2023-02-03T21:44:44.307Z,62.71
2023-02-03T21:46:46.213Z,62.80
2023-02-03T21:48:51.441Z,62.68
2023-02-03T21:50:55.431Z,62.66
2023-02-03T21:53:21.578Z,63.00
2023-02-03T21:55:23.411Z,62.74
2023-02-03T21:57:25.236Z,62.92
2023-02-03T21:59:37.344Z,62.57
2023-02-03T22:01:39.484Z,62.77
2023-02-03T22:03:43.333Z,62.87
2023-02-03T22:05:50.500Z,62.92
2023-02-03T22:07:52.381Z,63.03
2023-02-03T22:09:54.669Z,63.03
2023-02-03T22:11:56.410Z,62.54
2023-02-03T22:13:58.291Z,62.84
2023-02-03T22:16:01.435Z,63.09
2023-02-03T22:18:04.174Z,63.16
2023-02-03T22:20:07.169Z,63.20
2023-02-03T22:22:09.150Z,63.65
2023-02-03T22:24:11.068Z,63.33
2023-02-03T22:26:16.711Z,63.25
2023-02-03T22:28:19.018Z,63.33
2023-02-03T22:30:21.079Z,63.18
2023-02-03T22:32:23.392Z,63.22
2023-02-03T22:34:25.697Z,63.16
2023-02-03T22:36:27.528Z,63.95
2023-02-03T22:38:29.989Z,63.63
2023-02-03T22:40:32.694Z,63.35
2023-02-03T22:42:34.567Z,63.49
2023-02-03T22:44:36.348Z,64.05
2023-02-03T22:46:38.308Z,64.25
2023-02-03T22:48:40.217Z,63.78
2023-02-03T22:50:42.553Z,64.03
2023-02-03T22:52:44.556Z,63.92
2023-02-03T22:54:46.422Z,63.97
2023-02-03T22:56:48.217Z,64.01
2023-02-03T22:58:50.542Z,64.02
2023-02-03T23:00:52.432Z,63.99
2023-02-03T23:02:54.571Z,64.15
2023-02-03T23:04:56.456Z,63.90
2023-02-03T23:06:58.340Z,64.64
2023-02-03T23:09:00.245Z,64.55
2023-02-03T23:11:02.082Z,64.27
2023-02-03T23:13:04.041Z,64.45
2023-02-03T23:15:06.462Z,64.49
2023-02-03T23:17:08.313Z,65.01
2023-02-03T23:19:10.161Z,64.52
2023-02-03T23:21:12.394Z,64.81
2023-02-03T23:23:14.418Z,65.60
2023-02-03T23:25:16.290Z,65.09
2023-02-03T23:27:18.530Z,65.22
2023-02-03T23:29:20.341Z,65.75
2023-02-03T23:31:22.231Z,65.58
2023-02-03T23:33:24.145Z,65.19
2023-02-03T23:35:31.453Z,65.38
2023-02-03T23:37:33.695Z,65.72
2023-02-03T23:39:35.465Z,65.22
2023-02-03T23:41:37.229Z,65.69
2023-02-03T23:43:39.025Z,65.81
2023-02-03T23:45:41.337Z,65.40
2023-02-03T23:47:45.233Z,65.57
2023-02-03T23:49:47.093Z,65.41
2023-02-03T23:51:48.912Z,65.18
2023-02-03T23:53:52.999Z,65.62
2023-02-03T23:55:57.451Z,65.88
2023-02-03T23:57:59.390Z,65.49
